Time;durP1;ratioP1;P1;durP2;ratioP2;P2;SDS_P1;SDS_P2;PMS_P1;PMS_P2;Temp;Humidity;BMP_temperature;BMP_pressure;BME280_temperature;BME280_humidity;BME280_pressure;Samples;Min_cycle;Max_cycle;Signal;HPM_P1;HPM_P2
2022/08/28 00:00:36;;;;;;;56.95;38.17;;;;;;;20.04;56.38;99529.91;5031753;28;20315;-61
2022/08/28 00:03:01;;;;;;;56.72;36.60;;;;;;;20.05;57.26;99534.19;5030418;28;20073;-62
2022/08/28 00:05:29;;;;;;;52.38;37.17;;;;;;;20.05;55.92;99536.88;5031129;28;20075;-61
2022/08/28 00:07:56;;;;;;;55.50;38.28;;;;;;;20.04;55.47;99527.22;5031268;28;20079;-62
2022/08/28 00:10:23;;;;;;;54.53;35.92;;;;;;;20.06;55.35;99526.91;5031578;28;20556;-62
2022/08/28 00:12:49;;;;;;;52.70;36.65;;;;;;;20.03;56.73;99519.44;5030357;28;20388;-62
2022/08/28 00:15:19;;;;;;;60.28;37.30;;;;;;;19.98;57.15;99517.66;5031462;28;20114;-61
2022/08/28 00:17:45;;;;;;;49.10;34.47;;;;;;;19.99;55.69;99516.56;5030023;28;20494;-61
2022/08/28 00:20:12;;;;;;;51.70;35.22;;;;;;;19.96;56.14;99517.94;5029752;28;20470;-62
2022/08/28 00:22:38;;;;;;;56.95;35.47;;;;;;;19.98;55.89;99525.72;5031165;28;20289;-62
2022/08/28 00:25:06;;;;;;;55.58;34.38;;;;;;;19.99;55.62;99524.63;5030180;28;20184;-62
2022/08/28 00:30:17;;;;;;;54.22;36.58;;;;;;;19.94;57.11;99527.41;5031050;28;20468;-61
2022/08/28 00:32:42;;;;;;;57.28;36.17;;;;;;;19.92;57.18;99524.22;5031315;28;20061;-61
2022/08/28 00:35:08;;;;;;;53.78;34.83;;;;;;;19.87;57.46;99517.03;5031124;28;20049;-61
2022/08/28 00:37:34;;;;;;;51.13;34.45;;;;;;;19.84;57.69;99516.81;5031289;28;20049;-63
2022/08/28 00:40:00;;;;;;;46.05;31.95;;;;;;;19.79;57.46;99523.06;5029506;28;20072;-61
2022/08/28 00:42:26;;;;;;;46.58;31.75;;;;;;;19.76;56.76;99520.97;5031081;28;20080;-62
2022/08/28 00:44:52;;;;;;;49.92;34.00;;;;;;;19.76;57.25;99518.28;5031015;28;20053;-62
2022/08/28 00:47:17;;;;;;;48.78;32.33;;;;;;;19.73;57.51;99516.97;5029988;28;20041;-62
2022/08/28 00:49:49;;;;;;;49.25;32.92;;;;;;;19.69;57.57;99510.59;5030663;28;20442;-61
2022/08/28 00:52:16;;;;;;;46.05;32.47;;;;;;;19.67;56.73;99504.72;5029548;28;20052;-61
2022/08/28 00:54:51;;;;;;;47.35;32.35;;;;;;;19.65;57.19;99506.91;5030897;28;20095;-61
2022/08/28 00:57:19;;;;;;;50.05;32.17;;;;;;;19.65;57.21;99504.22;5029665;28;20546;-62
2022/08/28 00:59:45;;;;;;;48.00;33.35;;;;;;;19.64;57.45;99504.47;5031022;28;20184;-62
2022/08/28 01:02:11;;;;;;;46.40;32.40;;;;;;;19.63;57.32;99506.38;5029497;28;20116;-63
2022/08/28 01:04:37;;;;;;;49.38;31.92;;;;;;;19.60;57.68;99498.91;5030687;28;20614;-62
2022/08/28 01:07:06;;;;;;;48.97;31.17;;;;;;;19.58;57.84;99502.97;5029545;28;20041;-62
2022/08/28 01:09:32;;;;;;;41.72;30.30;;;;;;;19.54;57.21;99494.69;5012918;28;20049;-62
2022/08/28 01:12:05;;;;;;;46.95;32.20;;;;;;;19.55;56.58;99493.59;5029479;28;20052;-62
2022/08/28 01:14:33;;;;;;;47.83;32.63;;;;;;;19.58;56.57;99497.59;5030917;28;20045;-61
2022/08/28 01:16:59;;;;;;;44.72;31.42;;;;;;;19.60;56.49;99492.72;5029604;28;20049;-62
2022/08/28 01:19:32;;;;;;;45.97;32.78;;;;;;;19.63;56.27;99494.81;5029426;28;20045;-61
2022/08/28 01:22:21;;;;;;;46.63;32.28;;;;;;;19.59;56.33;99491.13;5029709;28;20219;-62
2022/08/28 01:24:47;;;;;;;44.30;31.67;;;;;;;19.54;57.06;99496.59;5025547;28;20187;-62
2022/08/28 01:27:13;;;;;;;44.25;31.70;;;;;;;19.47;57.59;99492.41;5034191;28;20136;-62
2022/08/28 01:29:38;;;;;;;47.25;31.83;;;;;;;19.45;57.25;99491.09;5032765;28;20049;-60
2022/08/28 01:32:04;;;;;;;51.33;33.63;;;;;;;19.39;57.69;99481.50;5033952;28;20247;-61
2022/08/28 01:34:31;;;;;;;47.50;33.10;;;;;;;19.37;57.95;99489.84;5033802;28;20136;-61
2022/08/28 01:36:57;;;;;;;52.38;33.25;;;;;;;19.34;57.95;99489.66;5033855;28;20041;-61
2022/08/28 01:39:23;;;;;;;52.70;33.53;;;;;;;19.31;58.24;99490.22;5034028;28;20110;-61
2022/08/28 01:41:51;;;;;;;50.83;34.42;;;;;;;19.28;58.30;99488.94;5033861;28;20045;-60
2022/08/28 01:44:24;;;;;;;55.55;36.75;;;;;;;19.26;58.24;99488.41;5034041;28;20064;-60
2022/08/28 01:46:55;;;;;;;49.15;33.90;;;;;;;19.24;58.09;99487.94;5032704;28;20128;-62
2022/08/28 01:49:21;;;;;;;51.72;35.67;;;;;;;19.21;58.30;99478.56;5033617;28;20056;-61
2022/08/28 01:51:47;;;;;;;55.92;36.80;;;;;;;19.20;57.68;99476.16;5032421;28;20395;-62
2022/08/28 01:54:13;;;;;;;46.85;36.15;;;;;;;19.19;57.71;99479.94;5033563;28;20053;-62
2022/08/28 01:56:40;;;;;;;53.05;36.38;;;;;;;19.16;57.98;99481.31;5033418;28;20045;-62
2022/08/28 01:59:07;;;;;;;54.28;36.78;;;;;;;19.15;57.85;99473.53;5033833;28;20045;-60
2022/08/28 02:01:34;;;;;;;55.28;38.60;;;;;;;19.15;57.57;99478.91;5033426;28;20052;-61
2022/08/28 02:04:00;;;;;;;59.50;38.33;;;;;;;19.19;57.54;99482.63;5032206;28;20052;-61
2022/08/28 02:06:25;;;;;;;55.00;37.38;;;;;;;19.19;57.33;99475.34;5033365;28;20041;-62
2022/08/28 02:08:54;;;;;;;63.65;37.03;;;;;;;19.17;57.47;99472.16;5032007;28;20107;-61
2022/08/28 02:11:24;;;;;;;55.13;35.97;;;;;;;19.21;57.53;99469.69;5033198;28;20053;-61
2022/08/28 02:13:52;;;;;;;52.95;34.92;;;;;;;19.20;58.05;99468.88;5033230;28;20076;-60
2022/08/28 02:16:18;;;;;;;50.38;36.22;;;;;;;19.20;57.62;99468.88;5031932;28;20057;-61
2022/08/28 02:18:44;;;;;;;58.72;36.47;;;;;;;19.25;57.44;99471.50;5033373;28;20055;-61
2022/08/28 02:21:10;;;;;;;51.97;35.72;;;;;;;19.26;57.38;99467.69;5031926;28;20388;-62
2022/08/28 02:23:37;;;;;;;52.90;35.70;;;;;;;19.24;58.12;99464.53;5033138;28;20065;-62
2022/08/28 02:26:02;;;;;;;52.25;35.17;;;;;;;19.21;58.63;99472.38;5031717;28;20044;-61
2022/08/28 02:28:28;;;;;;;51.05;35.30;;;;;;;19.19;58.25;99466.50;5033154;28;20128;-61
2022/08/28 02:30:54;;;;;;;50.30;36.25;;;;;;;19.15;58.71;99462.78;5031634;28;20041;-61
2022/08/28 02:33:19;;;;;;;53.60;36.90;;;;;;;19.09;58.96;99459.41;5031604;28;20065;-61
2022/08/28 02:35:45;;;;;;;51.90;35.63;;;;;;;19.03;58.89;99456.00;5032646;28;20527;-61
2022/08/28 02:38:11;;;;;;;52.67;35.70;;;;;;;19.02;59.11;99458.94;5033009;28;20046;-62
2022/08/28 02:40:36;;;;;;;56.88;37.83;;;;;;;19.04;58.33;99462.16;5033188;28;20049;-61
2022/08/28 02:43:03;;;;;;;63.58;41.50;;;;;;;19.04;57.82;99457.56;5032713;28;20051;-61
2022/08/28 02:45:29;;;;;;;56.70;38.83;;;;;;;19.08;57.84;99454.31;5033001;28;20045;-61
2022/08/28 02:47:55;;;;;;;56.85;38.47;;;;;;;19.08;57.73;99455.09;5032599;28;20096;-62
2022/08/28 02:50:22;;;;;;;56.38;38.88;;;;;;;19.12;58.08;99458.00;5031452;28;20526;-61
2022/08/28 02:52:49;;;;;;;58.53;38.85;;;;;;;19.12;57.91;99456.13;5031286;28;20037;-61
2022/08/28 02:55:16;;;;;;;60.38;40.50;;;;;;;19.15;57.54;99449.34;5032752;28;20089;-60
2022/08/28 02:57:43;;;;;;;64.25;41.35;;;;;;;19.19;57.30;99450.38;5031151;28;20087;-62
2022/08/28 03:00:11;;;;;;;61.25;41.10;;;;;;;19.24;57.00;99463.75;5031293;28;20041;-61
2022/08/28 03:02:38;;;;;;;58.50;40.88;;;;;;;19.25;56.67;99455.38;5032373;28;20111;-62
2022/08/28 03:05:04;;;;;;;60.20;42.40;;;;;;;19.29;56.53;99458.25;5032747;28;20051;-61
2022/08/28 03:07:30;;;;;;;68.07;42.88;;;;;;;19.33;56.73;99461.97;5032371;28;20140;-62
2022/08/28 03:09:55;;;;;;;64.38;41.13;;;;;;;19.40;56.34;99448.94;5032636;28;20049;-61
2022/08/28 03:12:24;;;;;;;64.03;42.85;;;;;;;19.44;56.21;99447.28;5032292;28;20042;-62
2022/08/28 03:14:50;;;;;;;61.67;41.47;;;;;;;19.44;56.00;99455.34;5032348;28;20060;-61
2022/08/28 03:17:16;;;;;;;66.78;43.10;;;;;;;19.45;56.02;99450.78;5032443;28;20038;-61
2022/08/28 03:19:42;;;;;;;56.65;40.00;;;;;;;19.47;56.11;99453.94;4997915;28;20115;-62
2022/08/28 03:22:07;;;;;;;66.45;43.25;;;;;;;19.50;56.19;99450.66;5032183;28;20510;-63
2022/08/28 03:24:33;;;;;;;61.85;40.20;;;;;;;19.51;56.18;99449.59;5032240;28;20136;-61
2022/08/28 03:27:00;;;;;;;59.95;42.42;;;;;;;19.50;56.05;99448.78;5031951;28;20041;-61
2022/08/28 03:29:26;;;;;;;64.38;41.28;;;;;;;19.51;56.04;99446.91;5032221;28;20498;-61
2022/08/28 03:31:52;;;;;;;58.03;41.00;;;;;;;19.53;56.08;99444.72;5030631;28;20068;-60
2022/08/28 03:34:18;;;;;;;59.45;40.72;;;;;;;19.57;56.08;99453.78;5032079;28;20053;-62
2022/08/28 03:36:44;;;;;;;63.90;41.92;;;;;;;19.58;55.98;99449.19;5031684;28;20056;-61
2022/08/28 03:39:09;;;;;;;62.53;41.97;;;;;;;19.59;56.03;99456.97;5030591;28;20107;-61
2022/08/28 03:41:35;;;;;;;62.83;42.17;;;;;;;19.60;55.92;99444.34;5030520;28;20049;-62
2022/08/28 03:44:02;;;;;;;65.68;42.85;;;;;;;19.61;55.99;99441.34;5030308;28;20618;-61
2022/08/28 03:46:31;;;;;;;62.13;42.17;;;;;;;19.63;55.99;99435.66;5030386;28;20530;-62
2022/08/28 03:48:59;;;;;;;62.50;42.45;;;;;;;19.70;56.11;99438.78;5031282;28;20053;-62
2022/08/28 03:51:29;;;;;;;65.13;42.85;;;;;;;19.73;55.77;99440.88;5031516;28;20052;-63
2022/08/28 03:53:55;;;;;;;;;;;;;;;19.75;55.58;99441.41;5032100;28;20059;-61
2022/08/28 03:56:24;;;;;;;62.00;40.45;;;;;;;19.77;55.70;99444.59;5030201;28;20031;-61
2022/08/28 03:58:51;;;;;;;62.78;41.25;;;;;;;19.77;55.52;99439.22;5030242;28;20490;-60
2022/08/28 04:01:18;;;;;;;61.65;41.50;;;;;;;19.77;55.86;99435.72;5031354;28;20041;-61
2022/08/28 04:03:44;;;;;;;63.00;40.88;;;;;;;19.78;55.74;99440.81;5031212;28;20046;-62
2022/08/28 04:06:10;;;;;;;63.08;40.42;;;;;;;19.82;55.53;99441.00;5013571;28;20499;-62
2022/08/28 04:08:36;;;;;;;64.03;41.75;;;;;;;19.85;55.65;99437.72;5031376;28;20086;-61
2022/08/28 04:11:02;;;;;;;60.33;38.92;;;;;;;19.88;55.49;99431.75;5029990;28;20050;-62
2022/08/28 04:13:28;;;;;;;63.88;39.40;;;;;;;19.92;55.47;99432.75;5030046;28;20049;-62
2022/08/28 04:16:11;;;;;;;60.97;40.95;;;;;;;19.96;55.41;99434.53;5031143;28;20052;-61
2022/08/28 04:18:39;;;;;;;59.75;40.33;;;;;;;20.02;55.53;99423.69;5030151;28;20033;-61
2022/08/28 04:21:08;;;;;;;62.22;39.28;;;;;;;20.03;55.20;99431.47;5029803;28;20519;-62
2022/08/28 04:23:35;;;;;;;57.30;39.70;;;;;;;20.10;54.90;99439.94;5030133;28;20149;-62
2022/08/28 04:26:04;;;;;;;61.70;39.67;;;;;;;20.13;55.01;99441.22;5030322;28;20045;-62
2022/08/28 04:28:31;;;;;;;55.17;37.25;;;;;;;20.19;54.54;99435.44;5031216;28;20152;-61
2022/08/28 04:30:56;;;;;;;56.38;36.95;;;;;;;20.25;54.45;99438.03;5030192;28;20060;-61
2022/08/28 04:33:24;;;;;;;64.03;39.08;;;;;;;20.32;54.29;99430.34;5031017;28;20503;-61
2022/08/28 04:35:50;;;;;;;58.00;38.38;;;;;;;20.36;54.19;99431.34;5031278;28;20049;-62
2022/08/28 04:38:16;;;;;;;59.17;38.80;;;;;;;20.39;54.17;99433.44;5031017;28;20415;-62
2022/08/28 04:40:42;;;;;;;57.15;37.90;;;;;;;20.40;53.92;99441.19;5029539;28;20045;-62
2022/08/28 04:43:08;;;;;;;57.08;37.05;;;;;;;20.43;53.95;99443.28;5029838;28;20068;-60
2022/08/28 04:45:42;;;;;;;58.20;38.22;;;;;;;20.48;53.93;99442.41;5030639;28;20691;-61
2022/08/28 04:48:08;;;;;;;59.53;38.35;;;;;;;20.51;53.77;99444.50;4996970;28;20044;-61
2022/08/28 04:50:39;;;;;;;60.65;37.70;;;;;;;20.60;53.81;99450.78;5030582;28;20088;-62
2022/08/28 04:53:06;;;;;;;55.67;37.00;;;;;;;20.67;53.74;99441.50;5013404;28;20046;-62
2022/08/28 04:55:32;;;;;;;55.97;38.28;;;;;;;20.70;53.61;99443.56;5029507;28;20049;-62
2022/08/28 04:57:57;;;;;;;59.22;36.63;;;;;;;20.74;53.49;99431.91;5031005;28;20049;-62
2022/08/28 05:00:23;;;;;;;56.42;37.17;;;;;;;20.82;53.24;99433.06;5032818;28;20061;-61
2022/08/28 05:02:49;;;;;;;54.67;37.83;;;;;;;20.90;53.35;99435.03;5034689;28;20045;-61
2022/08/28 05:05:14;;;;;;;58.90;36.38;;;;;;;20.99;53.40;99424.34;5034791;28;20139;-61
2022/08/28 05:07:40;;;;;;;58.30;36.78;;;;;;;21.04;53.15;99425.00;5034607;28;20034;-63
2022/08/28 05:10:06;;;;;;;56.95;35.67;;;;;;;21.05;53.00;99426.59;5034642;28;20072;-61
2022/08/28 05:12:35;;;;;;;55.75;36.47;;;;;;;21.08;53.04;99417.09;5034432;28;20575;-61
2022/08/28 05:15:01;;;;;;;56.30;36.38;;;;;;;21.08;53.02;99415.22;5034748;28;20131;-61
2022/08/28 05:17:26;;;;;;;55.20;37.08;;;;;;;21.12;52.96;99417.28;5033460;28;20391;-62
2022/08/28 05:19:53;;;;;;;60.95;36.72;;;;;;;21.16;53.03;99412.91;5034391;28;20048;-61
2022/08/28 05:22:18;;;;;;;57.28;36.10;;;;;;;21.18;53.00;99411.50;5034678;28;20124;-61
2022/08/28 05:24:44;;;;;;;57.88;36.85;;;;;;;21.26;52.62;99413.41;5033091;28;20491;-60
2022/08/28 05:27:10;;;;;;;52.92;35.97;;;;;;;21.30;52.43;99416.31;5034255;28;20147;-62
2022/08/28 05:29:35;;;;;;;53.72;36.15;;;;;;;21.40;52.67;99418.00;5034399;28;20373;-61
2022/08/28 05:32:02;;;;;;;58.67;36.75;;;;;;;21.43;52.17;99411.97;5034226;28;20080;-62
2022/08/28 05:34:27;;;;;;;56.38;37.50;;;;;;;21.49;52.04;99414.22;5033044;28;20049;-62
2022/08/28 05:36:53;;;;;;;57.22;37.08;;;;;;;21.58;51.89;99414.28;5032805;28;20045;-62
2022/08/28 05:39:19;;;;;;;56.03;36.92;;;;;;;21.69;51.59;99415.59;5034218;28;20053;-61
2022/08/28 05:41:45;;;;;;;57.45;37.05;;;;;;;21.79;51.55;99419.91;5032793;28;20037;-63
2022/08/28 05:44:12;;;;;;;58.40;38.15;;;;;;;21.86;51.41;99406.00;5034103;28;20079;-61
2022/08/28 05:46:40;;;;;;;56.22;37.63;;;;;;;21.93;51.01;99411.72;5033827;28;20041;-61
2022/08/28 05:49:07;;;;;;;59.28;37.22;;;;;;;22.04;50.96;99412.25;5032674;28;20049;-61
2022/08/28 05:51:33;;;;;;;61.80;36.88;;;;;;;22.11;50.40;99402.56;5033777;28;20033;-62
2022/08/28 05:54:00;;;;;;;55.83;37.75;;;;;;;22.16;50.49;99407.06;5033916;28;20128;-62
2022/08/28 05:56:29;;;;;;;59.13;37.13;;;;;;;22.16;50.57;99401.66;5032321;28;20045;-62
2022/08/28 05:59:00;;;;;;;56.95;37.00;;;;;;;22.19;50.73;99406.44;5032716;28;20045;-62
2022/08/28 06:01:28;;;;;;;62.90;38.72;;;;;;;22.27;50.66;99407.59;5032513;28;20450;-61
2022/08/28 06:03:58;;;;;;;60.05;37.97;;;;;;;22.33;50.65;99399.03;5032343;28;20037;-62
2022/08/28 06:06:25;;;;;;;54.80;38.42;;;;;;;22.45;49.80;99401.91;5033480;28;20517;-62
2022/08/28 06:08:58;;;;;;;65.35;39.28;;;;;;;22.54;50.24;99390.31;5033549;28;20507;-62
2022/08/28 06:11:24;;;;;;;59.22;39.15;;;;;;;22.61;48.78;99387.91;5031704;28;20045;-61
2022/08/28 06:13:50;;;;;;;64.45;41.50;;;;;;;22.72;48.15;99389.19;5033606;28;20511;-61
2022/08/28 06:16:16;;;;;;;62.63;40.40;;;;;;;22.85;48.87;99387.44;5031963;28;20057;-62
2022/08/28 06:18:41;;;;;;;65.63;40.15;;;;;;;22.89;48.83;99386.50;5033348;28;20045;-63
2022/08/28 06:21:07;;;;;;;62.20;39.83;;;;;;;22.90;48.75;99385.38;5033515;28;20048;-63
2022/08/28 06:23:33;;;;;;;72.38;40.85;;;;;;;22.93;48.70;99385.84;5033431;28;20045;-62
2022/08/28 06:25:59;;;;;;;62.25;40.35;;;;;;;23.06;48.44;99382.19;5033357;28;20410;-61
2022/08/28 06:28:26;;;;;;;67.50;41.67;;;;;;;23.21;48.18;99375.53;5033001;28;20052;-63
2022/08/28 06:30:53;;;;;;;68.15;41.00;;;;;;;23.29;47.33;99371.97;5032955;28;20048;-62
2022/08/28 06:33:20;;;;;;;63.92;42.50;;;;;;;23.31;47.39;99373.25;5032875;28;20059;-62
2022/08/28 06:35:49;;;;;;;72.03;42.83;;;;;;;23.33;46.89;99362.91;5033096;28;20045;-62
2022/08/28 06:38:19;;;;;;;68.03;43.13;;;;;;;23.41;47.36;99360.50;5032969;28;20049;-64
2022/08/28 06:40:47;;;;;;;67.72;40.90;;;;;;;23.50;47.15;99358.53;5032861;28;20057;-62
2022/08/28 06:43:14;;;;;;;69.70;42.00;;;;;;;23.60;47.34;99360.13;5032830;28;20092;-63
2022/08/28 06:45:41;;;;;;;64.43;39.33;;;;;;;23.65;46.17;99359.91;5031569;28;20450;-62
2022/08/28 06:48:11;;;;;;;63.60;40.33;;;;;;;23.67;46.53;99357.69;5033037;28;20653;-64
2022/08/28 06:50:38;;;;;;;;;;;;;;;23.72;46.78;99355.63;5032037;28;20413;-62
2022/08/28 06:53:03;;;;;;;60.75;38.63;;;;;;;23.77;46.17;99360.06;5032496;28;19921;-63
2022/08/28 06:55:29;;;;;;;53.85;36.92;;;;;;;23.80;45.91;99359.44;5032949;28;20056;-62
2022/08/28 06:57:54;;;;;;;56.65;40.05;;;;;;;23.84;45.81;99363.06;5032518;28;20049;-63
2022/08/28 07:00:20;;;;;;;63.05;39.80;;;;;;;23.87;46.40;99362.41;5031371;28;20042;-62
2022/08/28 07:02:46;;;;;;;53.92;35.67;;;;;;;23.93;45.48;99357.59;5031278;28;20052;-62
2022/08/28 07:05:13;;;;;;;54.85;36.10;;;;;;;23.98;44.62;99360.13;5031331;28;20042;-64
2022/08/28 07:07:39;;;;;;;63.17;37.88;;;;;;;24.03;45.21;99360.72;5030886;28;20041;-63
2022/08/28 07:10:05;;;;;;;53.85;37.05;;;;;;;24.08;45.34;99359.72;5032103;28;20418;-63
2022/08/28 07:12:31;;;;;;;58.88;38.00;;;;;;;24.12;45.09;99355.28;5032417;28;20045;-64
2022/08/28 07:14:57;;;;;;;54.95;38.05;;;;;;;24.20;45.31;99353.59;5030963;28;20487;-61
2022/08/28 07:17:23;;;;;;;51.22;35.00;;;;;;;24.25;44.53;99365.03;5031954;28;20051;-61
2022/08/28 07:19:48;;;;;;;55.13;32.90;;;;;;;24.26;44.53;99355.00;5032211;28;20132;-63
2022/08/28 07:22:14;;;;;;;51.45;32.75;;;;;;;24.36;44.48;99362.75;5031464;28;20045;-62
2022/08/28 07:24:39;;;;;;;52.60;34.40;;;;;;;24.47;44.53;99363.97;5030728;28;20517;-62
2022/08/28 07:27:05;;;;;;;59.42;35.10;;;;;;;24.55;43.74;99356.09;5031859;28;20106;-63
2022/08/28 07:29:31;;;;;;;48.22;31.95;;;;;;;24.56;43.84;99344.94;5030377;28;20041;-62
2022/08/28 07:31:57;;;;;;;53.05;32.47;;;;;;;24.57;43.54;99346.53;5031462;28;20057;-62
2022/08/28 07:34:23;;;;;;;51.28;31.13;;;;;;;24.65;43.85;99351.06;5031726;28;20065;-62
2022/08/28 07:36:52;;;;;;;47.75;31.80;;;;;;;24.67;44.26;99351.53;5030234;28;20081;-62
2022/08/28 07:39:19;;;;;;;44.70;29.83;;;;;;;24.76;43.18;99346.03;5030350;28;20045;-60
2022/08/28 07:41:45;;;;;;;48.60;28.83;;;;;;;24.82;42.86;99339.25;5031562;28;20439;-64
2022/08/28 07:47:02;;;;;;;43.75;26.83;;;;;;;24.97;42.98;99345.19;5031749;28;20562;-63
2022/08/28 07:49:29;;;;;;;51.78;27.02;;;;;;;25.07;42.54;99340.16;5030422;28;20438;-61
2022/08/28 07:51:54;;;;;;;41.63;26.83;;;;;;;25.11;41.40;99332.91;5030450;28;20049;-62
2022/08/28 07:54:21;;;;;;;41.13;26.67;;;;;;;25.18;40.84;99337.84;5030342;28;20050;-62
2022/08/28 07:56:47;;;;;;;41.15;27.63;;;;;;;25.25;41.08;99340.00;5031622;28;20491;-61
2022/08/28 07:59:14;;;;;;;41.05;27.08;;;;;;;25.29;41.23;99338.19;5031706;28;20099;-62
2022/08/28 08:01:41;;;;;;;46.08;26.95;;;;;;;25.36;40.70;99338.44;5013599;28;20419;-62
2022/08/28 08:04:09;;;;;;;38.22;25.80;;;;;;;25.43;41.14;99340.59;5031572;28;20049;-63
2022/08/28 08:06:36;;;;;;;45.58;27.25;;;;;;;25.49;41.09;99331.88;5030130;28;20148;-61
2022/08/28 08:09:04;;;;;;;38.50;26.25;;;;;;;25.61;39.94;99325.66;5031684;28;20046;-62
2022/08/28 08:11:30;;;;;;;37.50;25.50;;;;;;;25.71;39.36;99335.31;5031241;28;20049;-63
2022/08/28 08:13:56;;;;;;;34.83;24.80;;;;;;;25.78;38.53;99339.00;5031546;28;20042;-63
2022/08/28 08:16:23;;;;;;;48.20;26.63;;;;;;;25.87;39.06;99340.84;5030877;28;20528;-62
2022/08/28 08:18:50;;;;;;;38.30;24.70;;;;;;;25.93;39.17;99340.28;4997227;28;20049;-61
2022/08/28 08:21:18;;;;;;;40.55;25.27;;;;;;;26.00;38.93;99335.09;5031159;28;20057;-62
2022/08/28 08:23:45;;;;;;;39.85;24.48;;;;;;;26.13;38.88;99337.78;5031202;28;20049;-63
2022/08/28 08:26:13;;;;;;;30.27;20.75;;;;;;;26.26;36.62;99334.66;5031091;28;20410;-62
2022/08/28 08:28:40;;;;;;;37.40;22.85;;;;;;;26.38;36.95;99336.56;5030975;28;20056;-62
2022/08/28 08:31:12;;;;;;;40.00;22.50;;;;;;;26.50;36.91;99341.19;5031175;28;20049;-62
2022/08/28 08:33:41;;;;;;;30.00;20.15;;;;;;;26.58;34.95;99342.22;5031585;28;20119;-62
2022/08/28 08:36:09;;;;;;;34.30;21.30;;;;;;;26.66;35.52;99346.72;5033772;28;20429;-62
2022/08/28 08:38:35;;;;;;;41.38;23.42;;;;;;;26.73;35.50;99336.81;5033858;28;20048;-62
2022/08/28 08:41:05;;;;;;;34.42;22.75;;;;;;;26.83;35.23;99338.25;5035227;28;20037;-62
2022/08/28 08:43:35;;;;;;;35.03;21.92;;;;;;;26.88;33.79;99331.75;5035030;28;20037;-63
2022/08/28 08:46:01;;;;;;;33.50;22.60;;;;;;;26.90;34.17;99343.88;5033852;28;20046;-62
2022/08/28 08:48:31;;;;;;;36.35;23.58;;;;;;;26.92;34.08;99341.63;5034920;28;20056;-63
2022/08/28 08:51:03;;;;;;;45.20;24.65;;;;;;;26.99;34.33;99341.00;5034030;28;20041;-61
2022/08/28 08:53:47;;;;;;;38.55;23.17;;;;;;;27.11;34.06;99342.88;5033694;28;20075;-61
2022/08/28 08:56:15;;;;;;;40.55;24.63;;;;;;;27.15;33.93;99338.34;5034970;28;20136;-62
2022/08/28 08:58:47;;;;;;;39.90;25.10;;;;;;;27.18;34.27;99340.38;5033618;28;20041;-63
2022/08/28 09:01:26;;;;;;;35.17;25.85;;;;;;;27.24;34.49;99330.00;5035063;28;20077;-61
2022/08/28 09:04:03;;;;;;;39.58;26.88;;;;;;;27.29;34.57;99333.25;5033576;28;20049;-61
2022/08/28 09:06:43;;;;;;;41.53;27.15;;;;;;;27.31;34.18;99335.63;5034587;28;20095;-63
2022/08/28 09:09:25;;;;;;;44.08;28.48;;;;;;;27.37;34.23;99329.56;5033489;28;20052;-62
2022/08/28 09:11:57;;;;;;;41.50;28.00;;;;;;;27.47;34.15;99332.91;5034854;28;20099;-63
2022/08/28 09:14:48;;;;;;;46.88;27.45;;;;;;;27.52;33.96;99330.72;5034656;28;20049;-63
2022/08/28 09:17:16;;;;;;;41.95;27.83;;;;;;;27.62;33.91;99332.13;5034470;28;20096;-62
2022/08/28 09:19:42;;;;;;;46.42;27.05;;;;;;;27.71;33.74;99326.47;5016812;28;20049;-63
2022/08/28 09:22:07;;;;;;;43.08;26.63;;;;;;;27.75;33.48;99313.75;5033163;28;20043;-62
2022/08/28 09:24:35;;;;;;;35.70;24.38;;;;;;;27.80;31.29;99318.97;5034663;28;20049;-62
2022/08/28 09:27:05;;;;;;;34.55;23.52;;;;;;;27.82;31.60;99319.38;5033005;28;20041;-63
2022/08/28 09:29:36;;;;;;;32.55;21.65;;;;;;;27.77;31.50;99314.97;5034405;28;20051;-63
2022/08/28 09:32:25;;;;;;;34.97;22.42;;;;;;;27.68;31.81;99322.53;5034164;28;20507;-63
2022/08/28 09:35:00;;;;;;;36.60;21.88;;;;;;;27.63;32.04;99323.59;5032918;28;20529;-63
2022/08/28 09:37:26;;;;;;;28.88;20.17;;;;;;;27.60;31.06;99320.78;5032762;28;20124;-63
2022/08/28 09:40:21;;;;;;;32.03;19.95;;;;;;;27.58;31.42;99325.78;5034238;28;20562;-62
2022/08/28 09:45:52;;;;;;;32.47;19.95;;;;;;;27.55;30.91;99315.59;5033354;28;20458;-61
2022/08/28 09:48:23;;;;;;;31.65;18.38;;;;;;;27.58;30.35;99318.41;5033754;28;20049;-65
2022/08/28 09:50:57;;;;;;;29.80;18.73;;;;;;;27.60;30.40;99320.78;5034193;28;20517;-62
2022/08/28 09:53:23;;;;;;;24.42;15.82;;;;;;;27.60;28.91;99315.34;5034014;28;20045;-62
2022/08/28 09:56:07;;;;;;;24.52;14.88;;;;;;;27.66;28.80;99322.09;5033648;28;20418;-63
2022/08/28 09:58:45;;;;;;;26.60;14.43;;;;;;;27.77;28.24;99317.69;5033730;28;20045;-63
2022/08/28 10:01:39;;;;;;;23.25;12.25;;;;;;;27.85;26.80;99316.75;5033814;28;20046;-63
2022/08/28 10:04:26;;;;;;;19.33;10.43;;;;;;;27.91;26.21;99311.78;5032171;28;20315;-62
2022/08/28 10:07:14;;;;;;;23.77;10.85;;;;;;;28.03;25.92;99311.69;5033356;28;20551;-61
2022/08/28 10:10:17;;;;;;;16.48;10.68;;;;;;;28.17;25.25;99305.75;5033706;28;20115;-62
2022/08/28 10:12:58;;;;;;;17.30;9.93;;;;;;;28.24;24.97;99308.63;5033426;28;20499;-62
2022/08/28 10:16:03;;;;;;;8.98;5.70;;;;;;;28.25;22.90;99309.41;5032309;28;20042;-63
2022/08/28 10:18:55;;;;;;;9.93;6.25;;;;;;;28.26;23.48;99313.72;5033318;28;20072;-63
2022/08/28 10:21:39;;;;;;;13.93;6.38;;;;;;;28.34;22.72;99311.94;5033029;28;20042;-64
2022/08/28 10:24:12;;;;;;;12.35;6.55;;;;;;;28.41;22.78;99301.16;5033198;28;20049;-63
2022/08/28 10:26:52;;;;;;;18.40;6.90;;;;;;;28.48;22.59;99298.63;5015076;28;20046;-61
2022/08/28 10:29:33;;;;;;;19.83;7.50;;;;;;;28.55;22.81;99301.47;5031920;28;20045;-63
2022/08/28 10:32:14;;;;;;;17.52;8.13;;;;;;;28.59;23.09;99294.19;5032984;28;20525;-62
2022/08/28 10:35:01;;;;;;;13.70;7.53;;;;;;;28.62;22.56;99293.47;5033413;28;20053;-62
2022/08/28 10:37:50;;;;;;;11.98;7.97;;;;;;;28.68;22.61;99283.81;5033248;28;20554;-62
2022/08/28 10:40:27;;;;;;;18.23;8.88;;;;;;;28.71;23.27;99280.38;5031808;28;20132;-62
2022/08/28 10:43:01;;;;;;;13.18;7.45;;;;;;;28.72;23.08;99278.44;4998926;28;20041;-63
2022/08/28 10:45:29;;;;;;;17.92;8.15;;;;;;;28.78;23.11;99285.16;5033007;28;20485;-63
2022/08/28 10:47:58;;;;;;;16.15;8.55;;;;;;;28.80;23.80;99274.69;5032931;28;20131;-61
2022/08/28 10:50:38;;;;;;;14.60;8.02;;;;;;;28.85;23.54;99276.31;5031515;28;20041;-62
2022/08/28 10:53:10;;;;;;;11.38;8.23;;;;;;;28.84;23.64;99275.53;5015286;28;20128;-63
2022/08/28 10:55:58;;;;;;;13.85;9.45;;;;;;;28.80;23.48;99266.50;5014980;28;20045;-62
2022/08/28 10:58:26;;;;;;;18.80;9.35;;;;;;;28.82;23.24;99275.09;5031400;28;20054;-63
2022/08/28 11:01:02;;;;;;;14.77;8.77;;;;;;;28.85;22.89;99276.31;5032423;28;20095;-62
2022/08/28 11:03:30;;;;;;;17.52;9.65;;;;;;;28.82;22.66;99274.31;5031286;28;20041;-61
2022/08/28 11:06:04;;;;;;;17.60;10.55;;;;;;;28.82;23.17;99272.38;5031101;28;20042;-62
2022/08/28 11:08:32;;;;;;;23.05;11.45;;;;;;;28.83;23.53;99273.97;5032595;28;20465;-62
2022/08/28 11:11:00;;;;;;;23.88;10.65;;;;;;;28.83;23.17;99273.97;5032196;28;20685;-62
2022/08/28 11:13:52;;;;;;;23.35;11.63;;;;;;;28.90;23.48;99276.81;5030890;28;20136;-63
2022/08/28 11:16:21;;;;;;;18.13;10.35;;;;;;;28.92;23.98;99273.72;5032095;28;20056;-63
2022/08/28 11:19:05;;;;;;;14.55;11.93;;;;;;;28.92;23.99;99266.34;5030965;28;20052;-63
2022/08/28 11:21:53;;;;;;;18.10;11.68;;;;;;;28.90;23.98;99271.34;5032183;28;20045;-63
2022/08/28 11:24:27;;;;;;;21.27;14.23;;;;;;;28.89;24.91;99269.00;5026644;28;20427;-61
2022/08/28 11:27:32;;;;;;;27.55;13.85;;;;;;;28.85;24.96;99263.47;5030846;28;20041;-63
2022/08/28 11:30:10;;;;;;;27.08;14.57;;;;;;;28.81;25.75;99262.63;5001275;28;20076;-62
2022/08/28 11:32:51;;;;;;;27.00;15.27;;;;;;;28.84;25.88;99267.34;5032032;28;20057;-63
2022/08/28 11:35:19;;;;;;;21.85;15.35;;;;;;;28.84;26.12;99261.91;5032206;28;20056;-62
2022/08/28 11:37:51;;;;;;;24.50;15.15;;;;;;;28.81;26.27;99259.09;5031833;28;20513;-63